WJA263 CYYC-CYYJ
Flight info
| Callsign | WJA263 |
|---|---|
| Flight time | N/A |
| Altitude | 32000 |
| Route | BOTAG Q894 BOOTH APASS8 |
| Aircraft | B736/M-SDE2E3FGHIRWXY/LB1 |
Departure
| Time | 2026-05-03 23:00 |
|---|---|
| Airport | Calgary International Airport (CYYC) |
Arrival
| Time | N/A |
|---|---|
| Airport | Victoria International Airport (CYYJ) |
| Time | Latitude | Longitude | Altitude | Speed | Heading |
|---|---|---|---|---|---|
| 2026-05-03 22:19 | 51.12904 | -114.00766 | 3552 ft | 0 kts | 274° |
| 2026-05-03 22:35 | 51.12903 | -114.00747 | 3561 ft | 2 kts | 275° |
| 2026-05-03 22:35 | 51.12902 | -114.00721 | 3569 ft | 2 kts | 275° |
| 2026-05-03 22:36 | 51.12900 | -114.00695 | 3564 ft | 2 kts | 275° |
| 2026-05-03 22:36 | 51.12899 | -114.00669 | 3564 ft | 2 kts | 275° |
| 2026-05-03 22:36 | 51.12898 | -114.00643 | 3562 ft | 2 kts | 275° |
| 2026-05-03 22:36 | 51.12895 | -114.00631 | 3562 ft | 0 kts | 173° |
| 2026-05-03 22:44 | 51.12893 | -114.00632 | 3572 ft | 1 kts | 179° |
| 2026-05-03 22:44 | 51.12872 | -114.00635 | 3563 ft | 5 kts | 185° |
| 2026-05-03 22:44 | 51.12823 | -114.00640 | 3567 ft | 9 kts | 177° |
| 2026-05-03 22:44 | 51.12753 | -114.00625 | 3566 ft | 12 kts | 176° |
| 2026-05-03 22:45 | 51.12660 | -114.00640 | 3564 ft | 15 kts | 192° |
| 2026-05-03 22:45 | 51.12614 | -114.00790 | 3566 ft | 18 kts | 267° |
| 2026-05-03 22:45 | 51.12611 | -114.01004 | 3564 ft | 21 kts | 265° |
| 2026-05-03 22:45 | 51.12603 | -114.01233 | 3563 ft | 20 kts | 268° |
| 2026-05-03 22:46 | 51.12601 | -114.01454 | 3562 ft | 20 kts | 271° |
| 2026-05-03 22:46 | 51.12602 | -114.01670 | 3561 ft | 19 kts | 269° |
| 2026-05-03 22:46 | 51.12541 | -114.01842 | 3561 ft | 17 kts | 216° |
| 2026-05-03 22:46 | 51.12522 | -114.01795 | 3561 ft | 0 kts | 177° |
| 2026-05-03 22:47 | 51.12517 | -114.01794 | 3561 ft | 4 kts | 175° |
| 2026-05-03 22:47 | 51.12468 | -114.01796 | 3559 ft | 11 kts | 181° |
| 2026-05-03 22:47 | 51.12368 | -114.01797 | 3558 ft | 18 kts | 180° |
| 2026-05-03 22:47 | 51.12225 | -114.01790 | 3557 ft | 23 kts | 182° |
| 2026-05-03 22:48 | 51.12039 | -114.01796 | 3558 ft | 30 kts | 179° |
| 2026-05-03 22:48 | 51.11807 | -114.01798 | 3556 ft | 36 kts | 179° |
| 2026-05-03 22:48 | 51.11535 | -114.01796 | 3554 ft | 42 kts | 180° |
| 2026-05-03 22:48 | 51.11229 | -114.01798 | 3555 ft | 47 kts | 180° |
| 2026-05-03 22:49 | 51.10900 | -114.01798 | 3553 ft | 46 kts | 180° |
| 2026-05-03 22:49 | 51.10587 | -114.01799 | 3551 ft | 43 kts | 180° |
| 2026-05-03 22:49 | 51.10303 | -114.01801 | 3553 ft | 39 kts | 179° |
| 2026-05-03 22:49 | 51.10042 | -114.01797 | 3549 ft | 36 kts | 180° |
| 2026-05-03 22:50 | 51.09805 | -114.01792 | 3550 ft | 33 kts | 182° |
| 2026-05-03 22:50 | 51.09685 | -114.01957 | 3551 ft | 26 kts | 275° |
| 2026-05-03 22:50 | 51.09747 | -114.02140 | 3552 ft | 15 kts | 353° |
| 2026-05-03 22:50 | 51.09773 | -114.02140 | 3552 ft | 0 kts | 1° |
| 2026-05-03 22:59 | 51.09862 | -114.02137 | 3553 ft | 41 kts | 360° |
| 2026-05-03 23:00 | 51.10434 | -114.02135 | 3545 ft | 122 kts | 359° |
| 2026-05-03 23:00 | 51.11449 | -114.02123 | 3840 ft | 160 kts | 3° |
| 2026-05-03 23:00 | 51.12601 | -114.02050 | 4614 ft | 170 kts | 3° |
| 2026-05-03 23:00 | 51.13829 | -114.01953 | 5428 ft | 181 kts | 5° |
| 2026-05-03 23:01 | 51.15091 | -114.01897 | 6323 ft | 185 kts | 359° |
| 2026-05-03 23:01 | 51.16386 | -114.01984 | 7234 ft | 182 kts | 355° |
| 2026-05-03 23:01 | 51.17614 | -114.02159 | 8026 ft | 179 kts | 352° |
| 2026-05-03 23:01 | 51.18840 | -114.02397 | 8830 ft | 164 kts | 348° |
| 2026-05-03 23:02 | 51.19854 | -114.02833 | 9704 ft | 140 kts | 317° |
| 2026-05-03 23:02 | 51.20391 | -114.04122 | 9939 ft | 156 kts | 278° |
| 2026-05-03 23:02 | 51.20153 | -114.05961 | 10022 ft | 186 kts | 239° |
| 2026-05-03 23:02 | 51.19116 | -114.07219 | 10551 ft | 198 kts | 200° |
| 2026-05-03 23:03 | 51.17741 | -114.07623 | 11081 ft | 207 kts | 194° |
| 2026-05-03 23:03 | 51.16296 | -114.07974 | 11563 ft | 212 kts | 194° |
| 2026-05-03 23:03 | 51.14812 | -114.08329 | 12094 ft | 218 kts | 193° |
| 2026-05-03 23:03 | 51.13309 | -114.08688 | 12633 ft | 223 kts | 194° |
| 2026-05-03 23:04 | 51.11681 | -114.09093 | 13158 ft | 247 kts | 194° |
| 2026-05-03 23:04 | 51.10005 | -114.09805 | 13903 ft | 252 kts | 214° |
| 2026-05-03 23:04 | 51.08729 | -114.11644 | 14700 ft | 251 kts | 244° |
| 2026-05-03 23:04 | 51.08139 | -114.14236 | 15530 ft | 252 kts | 265° |
| 2026-05-03 23:05 | 51.07989 | -114.17072 | 16376 ft | 260 kts | 271° |
| 2026-05-03 23:05 | 51.07940 | -114.20003 | 17250 ft | 268 kts | 272° |
| 2026-05-03 23:05 | 51.07904 | -114.22982 | 18111 ft | 275 kts | 273° |
| 2026-05-03 23:05 | 51.07860 | -114.26043 | 18879 ft | 281 kts | 273° |
| 2026-05-03 23:06 | 51.07802 | -114.29209 | 19668 ft | 286 kts | 272° |
| 2026-05-03 23:06 | 51.07736 | -114.32379 | 20455 ft | 286 kts | 272° |
| 2026-05-03 23:06 | 51.07663 | -114.35497 | 21250 ft | 282 kts | 272° |
| 2026-05-03 23:06 | 51.07587 | -114.38617 | 21973 ft | 282 kts | 272° |
| 2026-05-03 23:07 | 51.07508 | -114.41757 | 22631 ft | 283 kts | 272° |
| 2026-05-03 23:07 | 51.07429 | -114.44864 | 23316 ft | 283 kts | 272° |
| 2026-05-03 23:07 | 51.07348 | -114.48005 | 23913 ft | 283 kts | 272° |
| 2026-05-03 23:07 | 51.07267 | -114.51106 | 24501 ft | 282 kts | 273° |
| 2026-05-03 23:08 | 51.07185 | -114.54212 | 25087 ft | 281 kts | 273° |
| 2026-05-03 23:08 | 51.07102 | -114.57333 | 25693 ft | 280 kts | 273° |
| 2026-05-03 23:08 | 51.07010 | -114.60403 | 26303 ft | 280 kts | 270° |
| 2026-05-03 23:08 | 51.06651 | -114.63488 | 26853 ft | 284 kts | 262° |
| 2026-05-03 23:09 | 51.06171 | -114.66507 | 27362 ft | 285 kts | 262° |
| 2026-05-03 23:09 | 51.05674 | -114.69638 | 27550 ft | 299 kts | 262° |
| 2026-05-03 23:09 | 51.05175 | -114.72928 | 27763 ft | 309 kts | 265° |
| 2026-05-03 23:09 | 51.04805 | -114.76342 | 28012 ft | 321 kts | 263° |
| 2026-05-03 23:10 | 51.04261 | -114.79817 | 28238 ft | 333 kts | 261° |
| 2026-05-03 23:10 | 51.03641 | -114.83464 | 28465 ft | 345 kts | 260° |
| 2026-05-03 23:10 | 51.03005 | -114.87173 | 28696 ft | 356 kts | 260° |
| 2026-05-03 23:10 | 51.02345 | -114.91060 | 28914 ft | 367 kts | 260° |
| 2026-05-03 23:11 | 51.01686 | -114.94998 | 29150 ft | 377 kts | 261° |
| 2026-05-03 23:11 | 51.01006 | -114.99108 | 29371 ft | 388 kts | 261° |
| 2026-05-03 23:11 | 51.00319 | -115.03280 | 29600 ft | 397 kts | 261° |
| 2026-05-03 23:11 | 50.99617 | -115.07561 | 29819 ft | 406 kts | 261° |
| 2026-05-03 23:12 | 50.98898 | -115.11951 | 30040 ft | 414 kts | 261° |
| 2026-05-03 23:12 | 50.98163 | -115.16430 | 30223 ft | 422 kts | 261° |
| 2026-05-03 23:12 | 50.97423 | -115.20936 | 30408 ft | 429 kts | 261° |
| 2026-05-03 23:12 | 50.96660 | -115.25568 | 30600 ft | 435 kts | 260° |
| 2026-05-03 23:13 | 50.95886 | -115.30254 | 30797 ft | 441 kts | 261° |
| 2026-05-03 23:13 | 50.95103 | -115.34977 | 30969 ft | 447 kts | 261° |
| 2026-05-03 23:13 | 50.94311 | -115.39728 | 31182 ft | 451 kts | 260° |
| 2026-05-03 23:13 | 50.93502 | -115.44585 | 31368 ft | 456 kts | 261° |
| 2026-05-03 23:14 | 50.92682 | -115.49505 | 31554 ft | 460 kts | 260° |
| 2026-05-03 23:14 | 50.91865 | -115.54375 | 31758 ft | 463 kts | 260° |
| 2026-05-03 23:14 | 50.91059 | -115.59162 | 31919 ft | 467 kts | 260° |
| 2026-05-03 23:15 | 50.89362 | -115.69230 | 31946 ft | 479 kts | 259° |
| 2026-05-03 23:15 | 50.87981 | -115.77366 | 31945 ft | 485 kts | 260° |
| 2026-05-03 23:16 | 50.86296 | -115.87242 | 31935 ft | 489 kts | 260° |
| 2026-05-03 23:16 | 50.84526 | -115.97491 | 31930 ft | 471 kts | 260° |
| 2026-05-03 23:17 | 50.82812 | -116.07400 | 31940 ft | 465 kts | 260° |
| 2026-05-03 23:17 | 50.81095 | -116.17292 | 31934 ft | 464 kts | 259° |
| 2026-05-03 23:18 | 50.79380 | -116.27107 | 31946 ft | 463 kts | 259° |
| 2026-05-03 23:18 | 50.77658 | -116.36913 | 31941 ft | 464 kts | 259° |
| 2026-05-03 23:19 | 50.75922 | -116.46749 | 31974 ft | 470 kts | 259° |
| 2026-05-03 23:19 | 50.74056 | -116.56750 | 31973 ft | 479 kts | 258° |
| 2026-05-03 23:20 | 50.72094 | -116.66796 | 31971 ft | 477 kts | 258° |
| 2026-05-03 23:20 | 50.70123 | -116.76779 | 31978 ft | 477 kts | 257° |
| 2026-05-03 23:21 | 50.68157 | -116.86773 | 31979 ft | 476 kts | 257° |
| 2026-05-03 23:21 | 50.66196 | -116.96718 | 31946 ft | 473 kts | 258° |
| 2026-05-03 23:22 | 50.63240 | -117.11601 | 31949 ft | 474 kts | 257° |
| 2026-05-03 23:22 | 50.61273 | -117.21458 | 31982 ft | 475 kts | 257° |
| 2026-05-03 23:23 | 50.59270 | -117.31453 | 31959 ft | 478 kts | 257° |
| 2026-05-03 23:23 | 50.57254 | -117.41450 | 31965 ft | 479 kts | 257° |
| 2026-05-03 23:24 | 50.55228 | -117.51426 | 31944 ft | 481 kts | 257° |
| 2026-05-03 23:24 | 50.53190 | -117.61423 | 31958 ft | 481 kts | 257° |
| 2026-05-03 23:25 | 50.51137 | -117.71453 | 31934 ft | 481 kts | 257° |
| 2026-05-03 23:25 | 50.49080 | -117.81435 | 31956 ft | 481 kts | 257° |
| 2026-05-03 23:26 | 50.47012 | -117.91429 | 31932 ft | 481 kts | 257° |
| 2026-05-03 23:26 | 50.44941 | -118.01391 | 31958 ft | 480 kts | 256° |
| 2026-05-03 23:27 | 50.42864 | -118.11329 | 31964 ft | 480 kts | 257° |
| 2026-05-03 23:27 | 50.40778 | -118.21262 | 31942 ft | 480 kts | 256° |
| 2026-05-03 23:28 | 50.38675 | -118.31215 | 31958 ft | 480 kts | 256° |
| 2026-05-03 23:28 | 50.36569 | -118.41137 | 31963 ft | 481 kts | 257° |
| 2026-05-03 23:29 | 50.34453 | -118.51072 | 31960 ft | 478 kts | 256° |
| 2026-05-03 23:29 | 50.32345 | -118.60938 | 31958 ft | 479 kts | 256° |
| 2026-05-03 23:30 | 50.30220 | -118.70800 | 31959 ft | 480 kts | 256° |
| 2026-05-03 23:30 | 50.28079 | -118.80699 | 31857 ft | 476 kts | 256° |
| 2026-05-03 23:31 | 50.27029 | -118.85523 | 31882 ft | 462 kts | 256° |
| 2026-05-03 23:31 | 50.26009 | -118.90201 | 31929 ft | 458 kts | 256° |
| 2026-05-03 23:31 | 50.23941 | -118.99685 | 31926 ft | 461 kts | 256° |
| 2026-05-03 23:32 | 50.21872 | -119.09140 | 31941 ft | 464 kts | 256° |
| 2026-05-03 23:32 | 50.19769 | -119.18693 | 31938 ft | 467 kts | 256° |
| 2026-05-03 23:33 | 50.17643 | -119.28302 | 31929 ft | 468 kts | 256° |
| 2026-05-03 23:33 | 50.15507 | -119.37895 | 31912 ft | 468 kts | 256° |
| 2026-05-03 23:34 | 50.13357 | -119.47497 | 31921 ft | 468 kts | 255° |
| 2026-05-03 23:34 | 50.11210 | -119.57077 | 31920 ft | 468 kts | 255° |
| 2026-05-03 23:35 | 50.09055 | -119.66639 | 31911 ft | 469 kts | 255° |
| 2026-05-03 23:35 | 50.06893 | -119.76201 | 31933 ft | 469 kts | 256° |
| 2026-05-03 23:36 | 50.04716 | -119.85769 | 31940 ft | 469 kts | 255° |
| 2026-05-03 23:36 | 50.02520 | -119.95374 | 31944 ft | 470 kts | 255° |
| 2026-05-03 23:37 | 50.00331 | -120.04922 | 31946 ft | 471 kts | 255° |
| 2026-05-03 23:37 | 49.98121 | -120.14507 | 31946 ft | 471 kts | 255° |
| 2026-05-03 23:38 | 49.95901 | -120.24073 | 31955 ft | 472 kts | 255° |
| 2026-05-03 23:38 | 49.93668 | -120.33670 | 31958 ft | 473 kts | 255° |
| 2026-05-03 23:39 | 49.91414 | -120.43314 | 31942 ft | 474 kts | 255° |
| 2026-05-03 23:39 | 49.89159 | -120.52911 | 31952 ft | 474 kts | 255° |
| 2026-05-03 23:40 | 49.86903 | -120.62492 | 31926 ft | 476 kts | 255° |
| 2026-05-03 23:40 | 49.84614 | -120.72159 | 31939 ft | 476 kts | 255° |
| 2026-05-03 23:41 | 49.82326 | -120.81773 | 31935 ft | 477 kts | 254° |
| 2026-05-03 23:41 | 49.80065 | -120.91232 | 31934 ft | 478 kts | 254° |
| 2026-05-03 23:42 | 49.78140 | -120.99269 | 31914 ft | 479 kts | 254° |
| 2026-05-03 23:42 | 49.75802 | -121.08979 | 31923 ft | 479 kts | 255° |
| 2026-05-03 23:43 | 49.73476 | -121.18598 | 31779 ft | 480 kts | 254° |
| 2026-05-03 23:43 | 49.72298 | -121.23441 | 31662 ft | 480 kts | 254° |
| 2026-05-03 23:43 | 49.71126 | -121.28247 | 31590 ft | 479 kts | 254° |
| 2026-05-03 23:44 | 49.69946 | -121.33076 | 31449 ft | 480 kts | 253° |
| 2026-05-03 23:44 | 49.68761 | -121.37928 | 31280 ft | 481 kts | 254° |
| 2026-05-03 23:44 | 49.67583 | -121.42746 | 30652 ft | 485 kts | 253° |
| 2026-05-03 23:44 | 49.66390 | -121.47605 | 30064 ft | 476 kts | 253° |
| 2026-05-03 23:45 | 49.65215 | -121.52378 | 29423 ft | 471 kts | 253° |
| 2026-05-03 23:45 | 49.64055 | -121.57082 | 28778 ft | 472 kts | 253° |
| 2026-05-03 23:45 | 49.62896 | -121.61785 | 28135 ft | 472 kts | 252° |
| 2026-05-03 23:45 | 49.61739 | -121.66465 | 27504 ft | 473 kts | 252° |
| 2026-05-03 23:46 | 49.60552 | -121.71250 | 26893 ft | 477 kts | 252° |
| 2026-05-03 23:46 | 49.59355 | -121.76077 | 26321 ft | 480 kts | 252° |
| 2026-05-03 23:46 | 49.58150 | -121.80912 | 26152 ft | 483 kts | 252° |
| 2026-05-03 23:46 | 49.56948 | -121.85707 | 26042 ft | 485 kts | 252° |
| 2026-05-03 23:47 | 49.55724 | -121.90566 | 26011 ft | 484 kts | 252° |
| 2026-05-03 23:47 | 49.54507 | -121.95397 | 26003 ft | 483 kts | 252° |
| 2026-05-03 23:47 | 49.53289 | -122.00248 | 26013 ft | 484 kts | 252° |
| 2026-05-03 23:47 | 49.52036 | -122.04993 | 25908 ft | 479 kts | 248° |
| 2026-05-03 23:48 | 49.50432 | -122.09452 | 25481 ft | 470 kts | 242° |
| 2026-05-03 23:48 | 49.48737 | -122.13639 | 25032 ft | 461 kts | 240° |
| 2026-05-03 23:48 | 49.47025 | -122.17780 | 24571 ft | 455 kts | 240° |
| 2026-05-03 23:48 | 49.45334 | -122.21903 | 24105 ft | 453 kts | 241° |
| 2026-05-03 23:49 | 49.43664 | -122.26035 | 23635 ft | 450 kts | 241° |
| 2026-05-03 23:49 | 49.42039 | -122.30104 | 22855 ft | 452 kts | 241° |
| 2026-05-03 23:49 | 49.40395 | -122.34236 | 22047 ft | 448 kts | 241° |
| 2026-05-03 23:49 | 49.38795 | -122.38260 | 21314 ft | 445 kts | 241° |
| 2026-05-03 23:50 | 49.37184 | -122.42309 | 20547 ft | 440 kts | 241° |
| 2026-05-03 23:50 | 49.35588 | -122.46313 | 19807 ft | 435 kts | 241° |
| 2026-05-03 23:50 | 49.34020 | -122.50224 | 19105 ft | 431 kts | 240° |
| 2026-05-03 23:50 | 49.32441 | -122.54152 | 18405 ft | 427 kts | 240° |
| 2026-05-03 23:51 | 49.30892 | -122.58000 | 17643 ft | 423 kts | 240° |
| 2026-05-03 23:51 | 49.29370 | -122.61782 | 16880 ft | 419 kts | 240° |
| 2026-05-03 23:51 | 49.27836 | -122.65599 | 16120 ft | 416 kts | 240° |
| 2026-05-03 23:51 | 49.26320 | -122.69373 | 15379 ft | 413 kts | 240° |
| 2026-05-03 23:52 | 49.24826 | -122.73084 | 14647 ft | 409 kts | 240° |
| 2026-05-03 23:52 | 49.23344 | -122.76750 | 13961 ft | 406 kts | 240° |
| 2026-05-03 23:52 | 49.21852 | -122.80433 | 13202 ft | 403 kts | 239° |
| 2026-05-03 23:52 | 49.20379 | -122.84063 | 12437 ft | 400 kts | 240° |
| 2026-05-03 23:53 | 49.18932 | -122.87624 | 11710 ft | 398 kts | 239° |
| 2026-05-03 23:53 | 49.17476 | -122.91192 | 11347 ft | 386 kts | 238° |
| 2026-05-03 23:53 | 49.15876 | -122.94381 | 11117 ft | 372 kts | 227° |
| 2026-05-03 23:53 | 49.13979 | -122.96931 | 10793 ft | 362 kts | 219° |
| 2026-05-03 23:54 | 49.12003 | -122.99315 | 10359 ft | 357 kts | 219° |
| 2026-05-03 23:54 | 49.10072 | -123.01636 | 9946 ft | 352 kts | 218° |
| 2026-05-03 23:54 | 49.08157 | -123.03941 | 9470 ft | 348 kts | 218° |
| 2026-05-03 23:54 | 49.06281 | -123.06204 | 8882 ft | 348 kts | 218° |
| 2026-05-03 23:55 | 49.04377 | -123.08508 | 8258 ft | 349 kts | 219° |
| 2026-05-03 23:55 | 49.02472 | -123.10817 | 7635 ft | 349 kts | 219° |
| 2026-05-03 23:55 | 49.00601 | -123.13084 | 7286 ft | 342 kts | 219° |
| 2026-05-03 23:55 | 48.98758 | -123.15313 | 6967 ft | 333 kts | 219° |
| 2026-05-03 23:56 | 48.96948 | -123.17498 | 6648 ft | 326 kts | 219° |
| 2026-05-03 23:56 | 48.95199 | -123.19607 | 6245 ft | 322 kts | 219° |
| 2026-05-03 23:56 | 48.93448 | -123.21717 | 5799 ft | 320 kts | 219° |
| 2026-05-03 23:56 | 48.91703 | -123.23824 | 5356 ft | 317 kts | 219° |
| 2026-05-03 23:57 | 48.89998 | -123.25879 | 5059 ft | 310 kts | 219° |
| 2026-05-03 23:57 | 48.88339 | -123.27880 | 4993 ft | 295 kts | 220° |
| 2026-05-03 23:57 | 48.86769 | -123.29789 | 4984 ft | 280 kts | 221° |
| 2026-05-03 23:57 | 48.85350 | -123.31658 | 4977 ft | 267 kts | 223° |
| 2026-05-03 23:58 | 48.83987 | -123.33492 | 4980 ft | 252 kts | 223° |
| 2026-05-03 23:58 | 48.82707 | -123.35206 | 4980 ft | 240 kts | 223° |
| 2026-05-03 23:58 | 48.81497 | -123.36816 | 4977 ft | 226 kts | 223° |
| 2026-05-03 23:58 | 48.80318 | -123.38380 | 4980 ft | 223 kts | 223° |
| 2026-05-03 23:59 | 48.79156 | -123.39920 | 4994 ft | 221 kts | 223° |
| 2026-05-03 23:59 | 48.77994 | -123.41458 | 5004 ft | 220 kts | 223° |
| 2026-05-03 23:59 | 48.76848 | -123.42974 | 5004 ft | 220 kts | 222° |
| 2026-05-03 23:59 | 48.75711 | -123.44514 | 4993 ft | 220 kts | 230° |
| 2026-05-04 00:00 | 48.75073 | -123.46558 | 4998 ft | 215 kts | 268° |
| 2026-05-04 00:00 | 48.75234 | -123.48776 | 5015 ft | 216 kts | 286° |
| 2026-05-04 00:00 | 48.75654 | -123.50987 | 5002 ft | 218 kts | 289° |
| 2026-05-04 00:00 | 48.76091 | -123.53169 | 4984 ft | 212 kts | 289° |
| 2026-05-04 00:01 | 48.76506 | -123.55277 | 4982 ft | 209 kts | 288° |
| 2026-05-04 00:01 | 48.76914 | -123.57397 | 4985 ft | 207 kts | 288° |
| 2026-05-04 00:01 | 48.77311 | -123.59474 | 4995 ft | 205 kts | 288° |
| 2026-05-04 00:01 | 48.77709 | -123.61564 | 5000 ft | 206 kts | 288° |
| 2026-05-04 00:02 | 48.78106 | -123.63661 | 5012 ft | 207 kts | 288° |
| 2026-05-04 00:02 | 48.78503 | -123.65775 | 5010 ft | 208 kts | 288° |
| 2026-05-04 00:02 | 48.78897 | -123.67870 | 4985 ft | 209 kts | 288° |
| 2026-05-04 00:02 | 48.79297 | -123.69997 | 5004 ft | 208 kts | 288° |
| 2026-05-04 00:03 | 48.79689 | -123.72087 | 4988 ft | 207 kts | 288° |
| 2026-05-04 00:03 | 48.80085 | -123.74198 | 5001 ft | 206 kts | 288° |
| 2026-05-04 00:03 | 48.80243 | -123.76314 | 4885 ft | 203 kts | 261° |
| 2026-05-04 00:03 | 48.79598 | -123.78256 | 4392 ft | 214 kts | 225° |
| 2026-05-04 00:04 | 48.78312 | -123.79345 | 4127 ft | 207 kts | 198° |
| 2026-05-04 00:04 | 48.76978 | -123.79930 | 4104 ft | 198 kts | 196° |
| 2026-05-04 00:04 | 48.75668 | -123.80468 | 4086 ft | 193 kts | 196° |
| 2026-05-04 00:04 | 48.74375 | -123.80965 | 4069 ft | 188 kts | 188° |
| 2026-05-04 00:05 | 48.73158 | -123.80530 | 4101 ft | 181 kts | 138° |
| 2026-05-04 00:05 | 48.72490 | -123.78959 | 4140 ft | 183 kts | 114° |
| 2026-05-04 00:05 | 48.71922 | -123.77180 | 4098 ft | 187 kts | 114° |
| 2026-05-04 00:05 | 48.71403 | -123.75421 | 4080 ft | 176 kts | 112° |
| 2026-05-04 00:06 | 48.70959 | -123.73771 | 4047 ft | 166 kts | 108° |
| 2026-05-04 00:06 | 48.70587 | -123.72112 | 3839 ft | 165 kts | 106° |
| 2026-05-04 00:06 | 48.70256 | -123.70482 | 3666 ft | 162 kts | 106° |
| 2026-05-04 00:06 | 48.69930 | -123.68826 | 3441 ft | 164 kts | 104° |
| 2026-05-04 00:07 | 48.69615 | -123.67182 | 3217 ft | 166 kts | 105° |
| 2026-05-04 00:07 | 48.69285 | -123.65489 | 3011 ft | 165 kts | 105° |
| 2026-05-04 00:07 | 48.68977 | -123.63862 | 2762 ft | 157 kts | 104° |
| 2026-05-04 00:07 | 48.68684 | -123.62318 | 2613 ft | 150 kts | 104° |
| 2026-05-04 00:08 | 48.68397 | -123.60818 | 2375 ft | 143 kts | 103° |
| 2026-05-04 00:08 | 48.68123 | -123.59383 | 2193 ft | 146 kts | 103° |
| 2026-05-04 00:08 | 48.67838 | -123.57901 | 1984 ft | 147 kts | 102° |
| 2026-05-04 00:08 | 48.67555 | -123.56426 | 1804 ft | 145 kts | 104° |
| 2026-05-04 00:09 | 48.67275 | -123.54960 | 1604 ft | 147 kts | 102° |
| 2026-05-04 00:09 | 48.66998 | -123.53513 | 1384 ft | 139 kts | 103° |
| 2026-05-04 00:09 | 48.66727 | -123.52111 | 1226 ft | 142 kts | 103° |
| 2026-05-04 00:09 | 48.66462 | -123.50687 | 1002 ft | 136 kts | 104° |
| 2026-05-04 00:10 | 48.66206 | -123.49348 | 837 ft | 134 kts | 104° |
| 2026-05-04 00:10 | 48.65946 | -123.47979 | 645 ft | 135 kts | 104° |
| 2026-05-04 00:10 | 48.65688 | -123.46630 | 453 ft | 129 kts | 104° |
| 2026-05-04 00:10 | 48.65446 | -123.45356 | 292 ft | 121 kts | 104° |
| 2026-05-04 00:11 | 48.65219 | -123.44158 | 118 ft | 128 kts | 105° |
| 2026-05-04 00:11 | 48.64958 | -123.42951 | 96 ft | 136 kts | 110° |
| 2026-05-04 00:11 | 48.64647 | -123.41608 | 1002 ft | 128 kts | 106° |
| 2026-05-04 00:11 | 48.64319 | -123.40143 | 1505 ft | 168 kts | 102° |
| 2026-05-04 00:12 | 48.63984 | -123.38405 | 2419 ft | 176 kts | 107° |
| 2026-05-04 00:12 | 48.63578 | -123.36479 | 2957 ft | 211 kts | 107° |
| 2026-05-04 00:12 | 48.63045 | -123.34539 | 4352 ft | 165 kts | 109° |
| 2026-05-04 00:12 | 48.62842 | -123.33098 | 5916 ft | 124 kts | 86° |